createdAt,value
2019-05-21T00:03:14.759Z,1.85
2019-05-21T00:08:17.127Z,1.70
2019-05-21T00:13:19.433Z,1.80
2019-05-21T00:18:21.808Z,1.70
2019-05-21T00:23:24.123Z,2.05
2019-05-21T00:28:33.967Z,1.98
2019-05-21T00:33:54.699Z,1.82
2019-05-21T00:39:14.991Z,1.75
2019-05-21T00:44:17.316Z,2.08
2019-05-21T00:49:19.636Z,1.72
2019-05-21T00:54:22.027Z,1.70
2019-05-21T00:59:24.350Z,1.80
2019-05-21T01:04:26.664Z,1.67
2019-05-21T01:09:28.992Z,1.92
2019-05-21T01:14:31.311Z,1.40
2019-05-21T01:19:33.627Z,1.42
2019-05-21T01:24:35.952Z,1.42
2019-05-21T01:29:38.268Z,1.55
2019-05-21T01:34:40.603Z,1.50
2019-05-21T01:39:42.931Z,1.95
2019-05-21T01:44:45.315Z,1.77
2019-05-21T01:49:47.673Z,1.37
2019-05-21T01:54:50.143Z,1.60
2019-05-21T01:59:52.444Z,1.72
2019-05-21T02:04:54.751Z,1.22
2019-05-21T02:09:59.827Z,1.70
2019-05-21T02:15:02.200Z,1.75
2019-05-21T02:20:05.388Z,1.65
2019-05-21T02:25:08.031Z,1.47
2019-05-21T02:30:10.810Z,1.65
2019-05-21T02:35:13.356Z,1.80
2019-05-21T02:40:15.924Z,1.27
2019-05-21T02:45:18.392Z,1.60
2019-05-21T02:50:20.879Z,1.47
2019-05-21T02:55:23.227Z,1.60
2019-05-21T03:00:39.260Z,1.65
2019-05-21T03:05:41.599Z,2.27
2019-05-21T03:10:43.905Z,2.35
2019-05-21T03:15:46.206Z,2.02
2019-05-21T03:20:48.524Z,2.37
2019-05-21T03:25:50.841Z,2.22
2019-05-21T03:30:53.149Z,2.35
2019-05-21T03:35:55.448Z,2.30
2019-05-21T03:40:57.827Z,2.55
2019-05-21T03:46:00.228Z,1.62
2019-05-21T03:51:02.611Z,1.80
2019-05-21T03:56:04.920Z,1.90
2019-05-21T04:01:07.215Z,1.92
2019-05-21T04:06:09.589Z,1.72
2019-05-21T04:11:11.892Z,2.02
2019-05-21T04:16:31.192Z,1.55
2019-05-21T04:21:33.492Z,1.80
2019-05-21T04:26:35.790Z,1.70
2019-05-21T04:31:38.096Z,1.95
2019-05-21T04:36:40.400Z,1.60
2019-05-21T04:41:42.748Z,1.92
2019-05-21T04:46:45.116Z,1.80
2019-05-21T04:51:47.496Z,1.80
2019-05-21T04:56:49.805Z,1.87
2019-05-21T05:01:52.110Z,1.55
2019-05-21T05:06:54.419Z,1.80
2019-05-21T05:11:56.722Z,1.70
2019-05-21T05:16:59.097Z,1.70
2019-05-21T05:22:01.396Z,1.95
2019-05-21T05:27:03.700Z,1.70
2019-05-21T05:32:05.999Z,1.55
2019-05-21T05:37:08.309Z,1.77
2019-05-21T05:42:10.613Z,2.00
2019-05-21T05:47:12.987Z,1.42
2019-05-21T05:52:15.296Z,1.25
2019-05-21T05:57:17.595Z,1.62
2019-05-21T06:02:19.895Z,1.30
2019-05-21T06:07:22.196Z,1.45
2019-05-21T06:12:24.524Z,1.70
2019-05-21T06:17:26.979Z,1.40
2019-05-21T06:22:29.279Z,1.45
2019-05-21T06:27:31.608Z,1.50
2019-05-21T06:32:33.976Z,1.65
2019-05-21T06:37:36.279Z,1.40
2019-05-21T06:42:38.581Z,1.55
2019-05-21T06:47:40.884Z,1.67
2019-05-21T06:52:43.279Z,4.35
2019-05-21T06:57:45.652Z,5.65
2019-05-21T07:02:47.977Z,5.03
2019-05-21T07:07:50.335Z,5.10
2019-05-21T07:12:52.642Z,4.87
2019-05-21T07:17:54.943Z,5.22
2019-05-21T07:22:57.372Z,5.00
2019-05-21T07:27:59.826Z,4.45
2019-05-21T07:33:02.300Z,4.40
2019-05-21T07:38:04.850Z,3.90
2019-05-21T07:43:07.232Z,4.62
2019-05-21T07:48:09.540Z,3.98
2019-05-21T07:53:11.907Z,3.72
2019-05-21T07:58:14.229Z,3.87
2019-05-21T08:03:16.532Z,3.90
2019-05-21T08:08:18.917Z,3.90
2019-05-21T08:13:21.287Z,3.83
2019-05-21T08:18:23.589Z,4.25
2019-05-21T08:23:25.891Z,3.70
2019-05-21T08:28:28.264Z,3.85
2019-05-21T08:33:30.563Z,3.50
2019-05-21T08:38:32.880Z,3.75
2019-05-21T08:43:35.325Z,3.02
2019-05-21T08:48:37.704Z,3.15
2019-05-21T08:53:40.011Z,3.45
2019-05-21T08:58:42.366Z,3.40
2019-05-21T09:03:44.768Z,5.20
2019-05-21T09:08:47.082Z,4.83
2019-05-21T09:13:49.449Z,5.20
2019-05-21T09:18:51.771Z,5.08
2019-05-21T09:23:54.164Z,4.85
2019-05-21T09:28:56.524Z,4.67
2019-05-21T09:33:58.824Z,4.80
2019-05-21T09:39:01.131Z,5.55
2019-05-21T09:44:03.867Z,4.85
2019-05-21T09:49:06.172Z,2.83
2019-05-21T09:54:08.475Z,2.75
2019-05-21T09:59:27.575Z,3.00
2019-05-21T10:04:29.956Z,2.87
2019-05-21T10:09:32.353Z,3.12
2019-05-21T10:14:34.748Z,3.10
2019-05-21T10:19:37.063Z,3.33
2019-05-21T10:24:39.379Z,3.05
2019-05-21T10:29:41.695Z,2.90
2019-05-21T10:34:44.011Z,2.90
2019-05-21T10:39:46.327Z,3.60
2019-05-21T10:44:48.719Z,2.72
2019-05-21T10:49:51.330Z,3.20
2019-05-21T10:54:53.940Z,2.98
2019-05-21T10:59:56.259Z,2.75
2019-05-21T11:05:02.993Z,2.90
2019-05-21T11:10:06.777Z,2.75
2019-05-21T11:15:09.743Z,2.60
2019-05-21T11:20:12.616Z,2.90
2019-05-21T11:25:14.983Z,2.50
2019-05-21T11:30:17.480Z,2.40
2019-05-21T11:35:19.952Z,2.53
2019-05-21T11:40:22.616Z,2.45
2019-05-21T11:45:32.051Z,2.47
2019-05-21T11:50:29.328Z,2.15
2019-05-21T11:55:31.663Z,2.10
2019-05-21T12:00:34.021Z,2.08
2019-05-21T12:05:36.598Z,2.10
2019-05-21T12:10:38.937Z,1.80
2019-05-21T12:15:41.607Z,1.77
2019-05-21T12:20:44.480Z,1.52
2019-05-21T12:25:46.785Z,1.70
2019-05-21T12:30:49.161Z,1.80
2019-05-21T12:35:51.501Z,1.75
2019-05-21T12:40:53.843Z,1.55
2019-05-21T12:45:56.216Z,1.92
2019-05-21T12:50:58.599Z,1.62
2019-05-21T12:56:00.972Z,1.50
2019-05-21T13:01:03.274Z,1.50
2019-05-21T13:06:05.600Z,1.40
2019-05-21T13:11:07.957Z,1.77
2019-05-21T13:16:10.259Z,1.40
2019-05-21T13:21:12.563Z,1.60
2019-05-21T13:26:14.936Z,1.55
2019-05-21T13:31:17.248Z,1.65
2019-05-21T13:36:19.623Z,1.67
2019-05-21T13:41:21.997Z,1.77
2019-05-21T13:46:24.295Z,1.57
2019-05-21T13:51:26.767Z,1.42
2019-05-21T13:56:29.889Z,1.50
2019-05-21T14:01:40.975Z,1.57
2019-05-21T14:06:36.292Z,1.50
2019-05-21T14:11:38.664Z,1.52
2019-05-21T14:16:40.971Z,1.65
2019-05-21T14:21:43.364Z,1.35
2019-05-21T14:26:45.736Z,1.42
2019-05-21T14:31:48.049Z,1.40
2019-05-21T14:36:50.360Z,1.50
2019-05-21T14:41:54.653Z,1.62
2019-05-21T14:46:56.743Z,1.27
2019-05-21T14:51:59.047Z,1.67
2019-05-21T14:57:03.025Z,1.40
2019-05-21T15:02:05.562Z,1.17
2019-05-21T15:07:07.935Z,1.30
2019-05-21T15:12:10.239Z,1.40
2019-05-21T15:17:12.535Z,1.30
2019-05-21T15:22:14.851Z,1.37
2019-05-21T15:27:17.216Z,1.40
2019-05-21T15:32:19.519Z,1.50
2019-05-21T15:37:21.900Z,1.90
2019-05-21T15:42:24.201Z,1.87
2019-05-21T15:47:26.504Z,2.87
2019-05-21T15:52:28.816Z,1.52
2019-05-21T15:57:31.123Z,1.50
2019-05-21T16:02:33.502Z,1.42
2019-05-21T16:07:35.879Z,1.85
2019-05-21T16:12:38.194Z,2.00
2019-05-21T16:17:40.568Z,2.15
2019-05-21T16:22:42.871Z,2.80
2019-05-21T16:27:45.181Z,2.35
2019-05-21T16:32:47.559Z,2.00
2019-05-21T16:37:49.935Z,2.25
2019-05-21T16:42:52.244Z,2.42
2019-05-21T16:47:54.544Z,2.22
2019-05-21T16:52:56.846Z,2.02
2019-05-21T16:57:59.245Z,2.90
2019-05-21T17:03:01.552Z,2.20
2019-05-21T17:08:03.861Z,2.40
2019-05-21T17:13:06.227Z,2.42
2019-05-21T17:18:08.531Z,2.90
2019-05-21T17:23:10.912Z,3.02
2019-05-21T17:28:13.288Z,3.17
2019-05-21T17:33:15.584Z,3.15
2019-05-21T17:38:17.887Z,3.52
2019-05-21T17:43:20.188Z,3.08
2019-05-21T17:48:22.500Z,2.98
2019-05-21T17:53:24.868Z,3.70
2019-05-21T17:58:27.173Z,3.75
2019-05-21T18:03:29.552Z,3.70
2019-05-21T18:08:32.207Z,3.62
2019-05-21T18:13:34.599Z,3.65
2019-05-21T18:18:36.907Z,3.33
2019-05-21T18:23:39.276Z,3.58
2019-05-21T18:28:41.579Z,3.17
2019-05-21T18:33:44.055Z,3.08
2019-05-21T18:38:46.358Z,3.02
2019-05-21T18:43:50.266Z,3.10
2019-05-21T18:48:52.714Z,3.17
2019-05-21T18:53:55.012Z,2.92
2019-05-21T18:58:57.315Z,2.92
2019-05-21T19:03:59.787Z,2.65
2019-05-21T19:09:02.100Z,2.33
2019-05-21T19:14:04.475Z,2.62
2019-05-21T19:19:06.784Z,2.30
2019-05-21T19:24:09.156Z,2.87
2019-05-21T19:29:12.532Z,2.15
2019-05-21T19:34:14.913Z,2.30
2019-05-21T19:39:17.590Z,2.37
2019-05-21T19:44:19.955Z,2.72
2019-05-21T19:49:22.259Z,3.37
2019-05-21T19:54:24.565Z,2.50
2019-05-21T19:59:27.037Z,3.08
2019-05-21T20:04:29.956Z,3.90
2019-05-21T20:09:32.528Z,3.65
2019-05-21T20:14:35.468Z,3.50
2019-05-21T20:19:38.086Z,3.58
2019-05-21T20:24:40.890Z,2.95
2019-05-21T20:29:43.460Z,3.17
2019-05-21T20:34:45.773Z,2.70
2019-05-21T20:39:48.444Z,2.95
2019-05-21T20:44:50.752Z,2.70
2019-05-21T20:49:53.312Z,3.17
2019-05-21T20:54:56.831Z,3.00
2019-05-21T20:59:59.196Z,3.15
2019-05-21T21:05:01.782Z,2.55
2019-05-21T21:10:06.656Z,2.94
2019-05-21T21:15:10.107Z,2.75
2019-05-21T21:20:12.695Z,2.60
2019-05-21T21:25:16.631Z,2.83
2019-05-21T21:30:19.116Z,2.50
2019-05-21T21:35:21.431Z,2.75
2019-05-21T21:40:23.758Z,2.75
2019-05-21T21:45:26.152Z,2.77
2019-05-21T21:50:28.848Z,2.62
2019-05-21T21:55:32.100Z,3.22
2019-05-21T22:00:49.812Z,2.45
2019-05-21T22:05:52.231Z,2.52
2019-05-21T22:10:54.887Z,2.65
2019-05-21T22:15:57.276Z,2.60
2019-05-21T22:21:00.064Z,2.35
2019-05-21T22:26:02.392Z,2.45
2019-05-21T22:31:04.945Z,2.30
2019-05-21T22:36:07.665Z,2.25
2019-05-21T22:41:10.020Z,2.65
2019-05-21T22:46:12.392Z,2.45
2019-05-21T22:51:14.695Z,2.22
2019-05-21T22:56:16.992Z,2.50
2019-05-21T23:01:19.315Z,2.58
2019-05-21T23:06:21.793Z,2.55
2019-05-21T23:11:24.251Z,2.22
2019-05-21T23:16:27.052Z,2.40
2019-05-21T23:21:29.351Z,2.35
2019-05-21T23:26:33.293Z,2.83
2019-05-21T23:31:35.603Z,2.20
2019-05-21T23:36:39.817Z,2.27
2019-05-21T23:41:44.159Z,2.80
2019-05-21T23:46:47.110Z,2.80
2019-05-21T23:51:49.485Z,2.42
2019-05-21T23:56:52.525Z,2.50
